Time;durP1;ratioP1;P1;durP2;ratioP2;P2;SDS_P1;SDS_P2;PMS_P1;PMS_P2;Temp;Humidity;BMP_temperature;BMP_pressure;BME280_temperature;BME280_humidity;BME280_pressure;Samples;Min_cycle;Max_cycle;Signal;HPM_P1;HPM_P2
2022/12/14 00:01:24;;;;;;;55.78;33.65;;;-3.00;99.90;;;;;;5088386;28;20048;-76
2022/12/14 00:48:02;;;;;;;47.30;28.95;;;-3.10;99.90;;;;;;5074109;28;20081;-76
2022/12/14 00:50:27;;;;;;;46.83;28.60;;;-3.10;99.90;;;;;;5089356;28;20067;-77
2022/12/14 00:52:53;;;;;;;50.03;29.88;;;-3.20;99.90;;;;;;5071005;28;20059;-77
2022/12/14 00:55:19;;;;;;;51.05;29.35;;;-3.20;99.90;;;;;;5087221;28;20032;-76
2022/12/14 00:57:44;;;;;;;48.72;28.77;;;-3.20;99.90;;;;;;5088760;28;20044;-77
2022/12/14 01:00:10;;;;;;;51.20;28.63;;;-3.20;99.90;;;;;;5089661;28;20774;-77
2022/12/14 01:02:36;;;;;;;46.78;28.80;;;-3.20;99.90;;;;;;5087902;28;20048;-77
2022/12/14 01:05:02;;;;;;;49.78;29.33;;;-3.20;99.90;;;;;;5067583;28;20043;-77
2022/12/14 01:07:28;;;;;;;52.33;29.40;;;-3.30;99.90;;;;;;5069624;28;20483;-77
2022/12/14 01:09:53;;;;;;;51.53;29.98;;;-3.30;99.90;;;;;;5069766;28;20048;-77
2022/12/14 01:12:19;;;;;;;52.13;29.65;;;-3.30;99.90;;;;;;5071522;28;20052;-77
2022/12/14 01:14:45;;;;;;;51.60;28.48;;;-3.30;99.90;;;;;;5088284;28;20048;-77
2022/12/14 01:17:11;;;;;;;48.30;29.33;;;-3.30;99.90;;;;;;5070811;28;20076;-77
2022/12/14 01:19:36;;;;;;;49.92;30.27;;;-3.30;99.90;;;;;;5090128;28;20494;-77
2022/12/14 01:22:02;;;;;;;54.63;31.33;;;-3.30;99.90;;;;;;5090366;28;20040;-77
2022/12/14 01:24:28;;;;;;;49.78;29.17;;;-3.30;99.90;;;;;;5086111;28;20134;-77
2022/12/14 01:26:54;;;;;;;49.35;29.50;;;-3.40;99.90;;;;;;5084941;28;20040;-77
2022/12/14 01:29:19;;;;;;;48.95;28.05;;;-3.40;99.90;;;;;;5083999;28;20447;-77
2022/12/14 01:31:45;;;;;;;47.22;27.55;;;-3.50;99.90;;;;;;5085453;28;20064;-77
2022/12/14 01:34:11;;;;;;;44.47;27.35;;;-3.50;99.90;;;;;;5087759;28;20085;-77
2022/12/14 01:36:37;;;;;;;45.72;27.23;;;-3.60;99.90;;;;;;5085718;28;20039;-77
2022/12/14 01:39:08;;;;;;;42.38;25.77;;;-3.60;99.90;;;;;;5102462;27;20745;-77
2022/12/14 01:41:52;;;;;;;47.10;28.40;;;-3.60;99.90;;;;;;5066892;28;20048;-77
2022/12/14 01:44:17;;;;;;;49.45;28.05;;;-3.70;99.90;;;;;;5081011;28;20036;-77
2022/12/14 01:47:04;;;;;;;48.00;27.63;;;-3.70;99.90;;;;;;5085249;28;20050;-77
2022/12/14 01:49:39;;;;;;;44.30;24.77;;;-3.70;99.90;;;;;;5072663;28;20056;-77
2022/12/14 01:52:10;;;;;;;47.22;26.90;;;-3.70;99.90;;;;;;5066794;28;20367;-77
2022/12/14 01:55:08;;;;;;;47.30;26.92;;;-3.80;99.90;;;;;;5066836;28;20075;-76
2022/12/14 01:58:13;;;;;;;50.10;27.60;;;-3.80;99.90;;;;;;5082802;28;20044;-76
2022/12/14 02:00:39;;;;;;;51.67;28.23;;;-3.80;99.90;;;;;;5006938;28;20057;-77
2022/12/14 02:03:09;;;;;;;47.35;27.77;;;-3.80;99.90;;;;;;5061428;28;20573;-77
2022/12/14 02:05:39;;;;;;;46.55;27.30;;;-3.80;99.90;;;;;;5060858;28;20591;-77
2022/12/14 02:08:06;;;;;;;48.78;27.63;;;-3.90;99.90;;;;;;5065410;28;20582;-76
2022/12/14 02:10:33;;;;;;;49.95;26.50;;;-3.90;99.90;;;;;;5087729;28;20071;-77
2022/12/14 02:13:13;;;;;;;49.88;27.80;;;-3.90;99.90;;;;;;5069771;28;20572;-77
2022/12/14 02:15:40;;;;;;;48.85;28.63;;;-3.90;99.90;;;;;;5062994;28;20055;-77
2022/12/14 02:18:11;;;;;;;49.10;26.27;;;-3.90;99.90;;;;;;5083314;28;20047;-77
2022/12/14 02:21:02;;;;;;;47.42;28.10;;;-3.90;99.90;;;;;;5085196;28;20506;-77
2022/12/14 02:23:36;;;;;;;46.03;26.02;;;-4.00;99.90;;;;;;5086986;28;20044;-77
2022/12/14 02:26:39;;;;;;;49.05;26.13;;;-4.10;99.90;;;;;;5086324;28;20064;-77
2022/12/14 02:29:27;;;;;;;45.95;27.08;;;-4.10;99.90;;;;;;5068914;28;20047;-77
2022/12/14 02:32:43;;;;;;;49.58;26.75;;;-4.10;99.90;;;;;;5074200;28;20052;-77
2022/12/14 02:35:25;;;;;;;47.75;25.35;;;-4.20;99.90;;;;;;5054122;28;20376;-77
2022/12/14 02:38:13;;;;;;;50.42;27.02;;;-4.20;99.90;;;;;;5065116;28;20062;-77
2022/12/14 02:40:46;;;;;;;43.80;24.75;;;-4.20;99.90;;;;;;5076923;28;20044;-77
2022/12/14 02:43:29;;;;;;;48.35;26.42;;;-4.30;99.90;;;;;;5064342;28;20044;-77
2022/12/14 02:46:05;;;;;;;44.42;24.85;;;-4.30;99.90;;;;;;5065949;28;20044;-77
2022/12/14 02:48:47;;;;;;;46.40;25.05;;;-4.40;99.90;;;;;;5055227;28;20075;-77
2022/12/14 02:51:21;;;;;;;47.00;25.88;;;-4.40;99.90;;;;;;5066449;28;20615;-77
2022/12/14 02:54:30;;;;;;;48.72;26.63;;;-4.40;99.90;;;;;;5064434;28;20048;-77
2022/12/14 02:57:29;;;;;;;46.10;25.13;;;-4.50;99.90;;;;;;5065313;28;20516;-77
2022/12/14 02:59:59;;;;;;;46.85;24.63;;;-4.50;99.90;;;;;;5080112;28;20052;-77
2022/12/14 03:02:25;;;;;;;43.83;24.48;;;-4.60;99.90;;;;;;5066982;28;20044;-76
2022/12/14 03:04:51;;;;;;;46.38;24.92;;;-4.60;99.90;;;;;;5084420;28;20044;-77
2022/12/14 03:07:23;;;;;;;47.45;24.90;;;-4.60;99.90;;;;;;5095440;28;20036;-77
2022/12/14 03:09:48;;;;;;;47.53;24.75;;;-4.60;99.90;;;;;;5060888;28;20122;-77
2022/12/14 03:12:16;;;;;;;47.20;24.98;;;-4.70;99.90;;;;;;5066643;28;20442;-80
2022/12/14 03:14:49;;;;;;;48.25;26.00;;;-4.70;99.90;;;;;;5095328;28;20054;-80
2022/12/14 03:17:19;;;;;;;46.03;25.90;;;-4.70;99.90;;;;;;5076011;28;20209;-80
2022/12/14 03:20:11;;;;;;;44.65;24.95;;;-4.70;99.90;;;;;;5087116;28;20048;-80
2022/12/14 03:23:03;;;;;;;43.03;24.10;;;-4.70;99.90;;;;;;5083265;28;20131;-80
2022/12/14 03:25:36;;;;;;;44.40;23.73;;;-4.70;99.90;;;;;;5076754;28;20399;-80
2022/12/14 03:28:09;;;;;;;43.80;25.13;;;-4.80;99.90;;;;;;5083456;28;20052;-80
2022/12/14 03:30:38;;;;;;;49.38;26.63;;;-4.80;99.90;;;;;;5065804;28;20455;-80
2022/12/14 03:33:10;;;;;;;53.58;25.95;;;-4.80;99.90;;;;;;5084795;28;20403;-80
2022/12/14 03:35:45;;;;;;;48.78;25.65;;;-4.80;99.90;;;;;;5065857;28;20048;-80
2022/12/14 03:38:28;;;;;;;48.85;24.65;;;-4.80;99.90;;;;;;5081396;28;20051;-80
2022/12/14 03:41:14;;;;;;;47.55;25.13;;;-4.70;99.90;;;;;;5084159;28;20654;-80
2022/12/14 03:43:55;;;;;;;54.85;26.00;;;-4.70;99.90;;;;;;5067859;28;20050;-80
2022/12/14 03:47:02;;;;;;;48.03;25.73;;;-4.70;99.90;;;;;;5077812;28;20442;-80
2022/12/14 03:49:43;;;;;;;49.38;26.17;;;-4.70;99.90;;;;;;4999404;28;20060;-80
2022/12/14 03:52:28;;;;;;;49.83;25.38;;;-4.70;99.90;;;;;;5055762;28;20152;-75
2022/12/14 03:55:16;;;;;;;50.53;27.20;;;-4.70;99.90;;;;;;5083186;28;20510;-80
2022/12/14 03:57:59;;;;;;;48.30;27.60;;;-4.80;99.90;;;;;;5054921;28;20126;-80
2022/12/14 04:00:28;;;;;;;48.47;26.65;;;-4.80;99.90;;;;;;5056059;28;20444;-80
2022/12/14 04:03:29;;;;;;;51.80;26.73;;;-4.70;99.90;;;;;;5084024;28;20071;-80
2022/12/14 04:06:08;;;;;;;50.78;27.90;;;-4.60;99.90;;;;;;5063774;28;20044;-80
2022/12/14 04:09:07;;;;;;;46.45;25.65;;;-4.60;99.90;;;;;;5084562;28;20091;-80
2022/12/14 04:20:29;;;;;;;46.35;24.52;;;-4.60;99.90;;;;;;5086731;28;20044;-80
2022/12/14 04:23:12;;;;;;;48.45;25.35;;;-4.60;99.90;;;;;;5072246;28;20043;-80
2022/12/14 04:26:03;;;;;;;47.65;25.25;;;-4.60;99.90;;;;;;5088854;28;20051;-80
2022/12/14 04:31:29;;;;;;;43.88;24.98;;;-4.60;99.90;;;;;;5068651;28;20079;-80
2022/12/14 04:33:58;;;;;;;48.80;24.85;;;-4.60;99.90;;;;;;5085807;28;20036;-80
2022/12/14 04:36:32;;;;;;;47.90;25.27;;;-4.50;99.90;;;;;;5069841;28;20040;-80
2022/12/14 04:39:05;;;;;;;45.22;23.92;;;-4.50;99.90;;;;;;5063156;28;20090;-80
2022/12/14 04:41:40;;;;;;;49.25;25.17;;;-4.50;99.90;;;;;;5065661;28;20352;-80
2022/12/14 04:44:25;;;;;;;48.95;24.88;;;-4.50;99.90;;;;;;5083904;28;20090;-80
2022/12/14 04:46:53;;;;;;;45.00;24.45;;;-4.50;99.90;;;;;;5069749;28;20671;-80
2022/12/14 04:49:47;;;;;;;44.40;23.85;;;-4.50;99.90;;;;;;5085443;28;20044;-80
2022/12/14 04:52:39;;;;;;;44.97;24.75;;;-4.50;99.90;;;;;;5071119;28;20055;-80
2022/12/14 04:55:26;;;;;;;50.55;23.80;;;-4.60;99.90;;;;;;5069220;28;20040;-80
2022/12/14 04:57:59;;;;;;;45.50;24.23;;;-4.60;99.90;;;;;;5063330;28;20068;-80
2022/12/14 05:00:26;;;;;;;46.22;25.38;;;-4.70;99.90;;;;;;5068589;28;20044;-80
2022/12/14 05:03:20;;;;;;;42.88;22.98;;;-4.60;99.90;;;;;;5070993;28;20040;-80
2022/12/14 05:06:10;;;;;;;45.05;24.48;;;-4.60;99.90;;;;;;5066739;28;20480;-80
2022/12/14 05:08:45;;;;;;;49.15;25.13;;;-4.60;99.90;;;;;;5070520;28;20052;-80
2022/12/14 05:11:23;;;;;;;48.05;24.52;;;-4.60;99.90;;;;;;5102778;27;20048;-80
2022/12/14 05:13:49;;;;;;;46.08;24.13;;;-4.60;99.90;;;;;;5088415;28;20087;-80
2022/12/14 05:16:21;;;;;;;47.78;23.58;;;-4.60;99.90;;;;;;5062485;28;20530;-80
2022/12/14 05:18:47;;;;;;;42.80;23.77;;;-4.60;99.90;;;;;;5088890;28;20044;-80
2022/12/14 05:21:45;;;;;;;43.92;23.98;;;-4.60;99.90;;;;;;5069348;28;20051;-80
2022/12/14 05:24:03;;;;;;;41.70;22.77;;;-4.60;99.90;;;;;;5102388;28;20056;-80
2022/12/14 05:26:29;;;;;;;42.65;22.90;;;-4.60;99.90;;;;;;5099265;27;20040;-81
2022/12/14 05:28:55;;;;;;;42.92;23.58;;;-4.60;99.90;;;;;;5066209;28;20044;-81
2022/12/14 05:31:22;;;;;;;38.58;22.50;;;-4.60;99.90;;;;;;5069981;28;20039;-80
2022/12/14 05:33:47;;;;;;;46.10;23.50;;;-4.60;99.90;;;;;;5083090;28;20048;-80
2022/12/14 05:36:13;;;;;;;39.22;20.98;;;-4.60;99.90;;;;;;5065704;28;20555;-80
2022/12/14 05:38:40;;;;;;;41.20;22.80;;;-4.60;99.90;;;;;;5069721;28;20059;-81
2022/12/14 05:41:05;;;;;;;40.40;22.33;;;-4.60;99.90;;;;;;5068659;28;20184;-81
2022/12/14 05:43:31;;;;;;;46.03;23.50;;;-4.60;99.90;;;;;;5060550;28;20725;-80
2022/12/14 05:46:02;;;;;;;45.22;22.90;;;-4.60;99.90;;;;;;5065620;28;20044;-80
2022/12/14 05:48:28;;;;;;;43.80;22.35;;;-4.60;99.90;;;;;;5087294;28;20051;-80
2022/12/14 05:50:54;;;;;;;39.65;22.60;;;-4.50;99.90;;;;;;5068014;28;20048;-80
2022/12/14 05:53:19;;;;;;;43.45;21.70;;;-4.50;99.90;;;;;;5082717;28;20043;-81
2022/12/14 05:55:49;;;;;;;43.20;21.25;;;-4.50;99.90;;;;;;5087008;28;20036;-81
2022/12/14 05:58:15;;;;;;;40.72;22.27;;;-4.50;99.90;;;;;;5085219;28;20062;-81
2022/12/14 06:00:41;;;;;;;46.10;22.90;;;-4.50;99.90;;;;;;5066740;28;20052;-81
2022/12/14 06:03:06;;;;;;;46.03;23.00;;;-4.50;99.90;;;;;;5066783;28;20139;-81
2022/12/14 06:05:32;;;;;;;44.95;23.67;;;-4.50;99.90;;;;;;5081842;28;20097;-81
2022/12/14 06:07:58;;;;;;;44.92;23.60;;;-4.60;99.90;;;;;;5087111;28;20097;-81
2022/12/14 06:10:24;;;;;;;39.78;21.58;;;-4.60;99.90;;;;;;5080368;28;20407;-81
2022/12/14 06:12:50;;;;;;;39.33;22.55;;;-4.60;99.90;;;;;;5066045;28;20140;-81
2022/12/14 06:15:15;;;;;;;41.38;21.73;;;-4.60;99.90;;;;;;5081297;28;20418;-82
2022/12/14 06:17:45;;;;;;;40.67;21.92;;;-4.60;99.90;;;;;;5065034;28;20055;-82
2022/12/14 06:20:12;;;;;;;40.03;22.63;;;-4.60;99.90;;;;;;5085304;28;20075;-81
2022/12/14 06:22:39;;;;;;;40.38;21.98;;;-4.60;99.90;;;;;;5079753;28;20563;-82
2022/12/14 06:25:06;;;;;;;42.03;21.33;;;-4.70;99.90;;;;;;5085580;28;20054;-81
2022/12/14 06:27:32;;;;;;;39.07;21.80;;;-4.70;99.90;;;;;;5065337;28;20783;-82
2022/12/14 06:29:58;;;;;;;41.08;22.80;;;-4.70;99.90;;;;;;5087249;28;20754;-81
2022/12/14 06:32:24;;;;;;;39.53;21.55;;;-4.60;99.90;;;;;;5080228;28;20062;-79
2022/12/14 06:34:50;;;;;;;43.10;21.95;;;-4.70;99.90;;;;;;5087715;28;20043;-82
2022/12/14 06:37:16;;;;;;;41.70;21.17;;;-4.70;99.90;;;;;;5075400;28;20487;-82
2022/12/14 06:39:42;;;;;;;41.50;22.45;;;-4.70;99.90;;;;;;5096329;28;20048;-81
2022/12/14 06:42:08;;;;;;;44.13;22.90;;;-4.70;99.90;;;;;;5062831;28;20036;-81
2022/12/14 06:44:34;;;;;;;39.08;22.48;;;-4.70;99.90;;;;;;5066071;28;20047;-81
2022/12/14 06:47:00;;;;;;;40.65;22.55;;;-4.70;99.90;;;;;;5058951;28;20044;-81
2022/12/14 06:49:26;;;;;;;40.75;21.98;;;-4.70;99.90;;;;;;5054194;28;20415;-80
2022/12/14 06:51:51;;;;;;;42.80;22.42;;;-4.70;99.90;;;;;;5038520;28;20045;-83
2022/12/14 06:54:18;;;;;;;46.05;22.88;;;-4.70;99.90;;;;;;5039477;28;20045;-82
2022/12/14 06:56:45;;;;;;;42.10;22.23;;;-4.80;99.90;;;;;;5041559;28;20040;-83
2022/12/14 06:59:12;;;;;;;40.95;21.92;;;-4.80;99.90;;;;;;5041927;28;20052;-83
2022/12/14 07:01:38;;;;;;;40.15;20.63;;;-4.80;99.90;;;;;;5040528;28;20055;-83
2022/12/14 07:04:04;;;;;;;41.45;22.33;;;-4.90;99.90;;;;;;5040110;28;20044;-83
2022/12/14 07:06:37;;;;;;;43.43;22.90;;;-4.90;99.90;;;;;;5041967;28;20055;-83
2022/12/14 07:09:04;;;;;;;42.30;22.00;;;-4.90;99.90;;;;;;5036235;28;20386;-84
2022/12/14 07:11:30;;;;;;;44.10;22.48;;;-4.90;99.90;;;;;;5044380;28;20040;-84
2022/12/14 07:13:59;;;;;;;41.65;21.85;;;-4.90;99.90;;;;;;5032457;28;20051;-83
2022/12/14 07:16:28;;;;;;;40.75;22.08;;;-4.90;99.90;;;;;;5038126;28;20041;-83
2022/12/14 07:18:54;;;;;;;41.58;21.85;;;-4.90;99.90;;;;;;5039788;28;20377;-83
2022/12/14 07:21:21;;;;;;;43.03;23.95;;;-5.00;99.90;;;;;;5032366;28;20475;-83
2022/12/14 07:23:50;;;;;;;41.35;23.00;;;-5.00;99.90;;;;;;5035831;28;20049;-84
2022/12/14 07:26:22;;;;;;;41.67;21.50;;;-5.00;99.90;;;;;;5045383;28;20123;-84
2022/12/14 07:28:49;;;;;;;40.42;21.15;;;-5.00;99.90;;;;;;5042120;28;20037;-83
2022/12/14 07:31:19;;;;;;;42.33;22.85;;;-5.00;99.90;;;;;;5042222;28;20123;-83
2022/12/14 07:33:45;;;;;;;42.72;21.00;;;-5.00;99.90;;;;;;5036154;28;20049;-83
2022/12/14 07:36:14;;;;;;;40.42;21.10;;;-5.00;99.90;;;;;;5042413;28;20040;-85
2022/12/14 07:38:41;;;;;;;42.40;21.70;;;-5.00;99.90;;;;;;5039207;28;20508;-83
2022/12/14 07:41:11;;;;;;;40.75;22.17;;;-5.00;99.90;;;;;;5042337;28;20045;-84
2022/12/14 07:43:38;;;;;;;43.60;23.15;;;-5.00;99.90;;;;;;5043390;28;20132;-84
2022/12/14 07:46:05;;;;;;;45.25;22.77;;;-5.00;99.90;;;;;;5038880;28;20060;-84
2022/12/14 07:48:31;;;;;;;43.83;22.67;;;-5.00;99.90;;;;;;5070210;28;20128;-84
2022/12/14 07:51:09;;;;;;;41.75;22.02;;;-5.00;99.90;;;;;;5078526;28;20044;-84
2022/12/14 07:53:36;;;;;;;41.03;22.10;;;-5.00;99.90;;;;;;5081043;28;20040;-83
2022/12/14 07:56:08;;;;;;;40.95;22.50;;;-5.00;99.90;;;;;;5051644;28;20041;-84
2022/12/14 07:58:35;;;;;;;44.75;24.75;;;-5.00;99.90;;;;;;5066250;28;20128;-80
2022/12/14 08:01:19;;;;;;;40.17;24.50;;;-5.00;99.90;;;;;;5070777;28;20051;-79
2022/12/14 08:03:57;;;;;;;44.90;25.90;;;-5.00;99.90;;;;;;5084510;28;20483;-76
2022/12/14 08:06:25;;;;;;;41.03;25.80;;;-5.00;99.90;;;;;;5051631;28;20491;-82
2022/12/14 08:08:51;;;;;;;44.42;25.50;;;-5.10;99.90;;;;;;5078866;28;20044;-80
2022/12/14 08:11:17;;;;;;;47.60;26.75;;;-5.10;99.90;;;;;;5069415;28;20044;-91
2022/12/14 08:13:43;;;;;;;41.92;25.63;;;-5.10;99.90;;;;;;5088326;28;20040;-86
2022/12/14 08:16:14;;;;;;;44.60;24.75;;;-5.00;99.90;;;;;;5069417;28;20074;-84
2022/12/14 08:18:41;;;;;;;44.20;24.98;;;-5.10;99.90;;;;;;5087402;28;20035;-90
2022/12/14 08:21:08;;;;;;;41.30;22.95;;;-5.10;99.90;;;;;;5086791;28;20031;-80
2022/12/14 08:23:35;;;;;;;44.08;24.05;;;-5.00;99.90;;;;;;5086062;28;20106;-81
2022/12/14 08:26:02;;;;;;;38.35;22.73;;;-5.00;99.90;;;;;;5090217;28;20524;-83
2022/12/14 08:28:29;;;;;;;41.28;22.35;;;-5.00;99.90;;;;;;5081986;28;20071;-80
2022/12/14 08:30:56;;;;;;;41.30;22.27;;;-5.00;99.90;;;;;;5098604;28;20089;-80
2022/12/14 08:33:21;;;;;;;41.88;21.58;;;-4.90;99.90;;;;;;5088204;28;20046;-76
2022/12/14 08:35:47;;;;;;;43.45;22.85;;;-4.90;99.90;;;;;;5086748;28;20608;-85
2022/12/14 08:38:13;;;;;;;39.25;21.52;;;-4.80;99.90;;;;;;5067066;28;20047;-82
2022/12/14 08:40:39;;;;;;;43.15;23.02;;;-4.80;99.90;;;;;;5087994;28;20036;-80
2022/12/14 08:43:05;;;;;;;44.03;26.90;;;-4.70;99.90;;;;;;5086678;28;20040;-87
2022/12/14 08:45:32;;;;;;;45.67;27.67;;;-4.70;99.90;;;;;;5078989;28;20036;-89
2022/12/14 08:47:58;;;;;;;47.88;28.25;;;-4.70;99.90;;;;;;5065428;28;20094;-86
2022/12/14 08:50:25;;;;;;;50.15;29.65;;;-4.60;99.90;;;;;;5086306;28;20123;-90
2022/12/14 08:52:50;;;;;;;48.42;27.52;;;-4.70;99.90;;;;;;5070871;28;20047;-75
2022/12/14 08:55:16;;;;;;;43.47;24.95;;;-4.60;99.90;;;;;;5088947;28;20074;-81
2022/12/14 08:57:42;;;;;;;38.72;21.95;;;-4.60;99.90;;;;;;5082347;28;20115;-85
2022/12/14 09:00:08;;;;;;;38.75;20.35;;;-4.60;99.90;;;;;;5078196;28;20059;-83
2022/12/14 09:02:35;;;;;;;38.17;20.10;;;-4.50;99.90;;;;;;5087232;28;20372;-81
2022/12/14 09:05:00;;;;;;;40.88;20.45;;;-4.40;99.90;;;;;;5083766;28;20127;-81
2022/12/14 09:07:30;;;;;;;37.75;20.45;;;-4.40;99.90;;;;;;5094315;27;20483;-83
2022/12/14 09:09:56;;;;;;;39.83;21.27;;;-4.30;99.90;;;;;;5080567;28;20105;-79
2022/12/14 09:12:22;;;;;;;39.78;20.67;;;-4.30;99.90;;;;;;5058464;28;20119;-77
2022/12/14 09:14:49;;;;;;;47.08;22.30;;;-4.20;99.90;;;;;;5064826;28;20174;-79
2022/12/14 09:17:15;;;;;;;44.83;22.97;;;-4.20;99.90;;;;;;5084758;28;20048;-84
2022/12/14 09:19:41;;;;;;;39.25;21.10;;;-4.10;99.90;;;;;;5066077;28;20050;-78
2022/12/14 09:22:07;;;;;;;40.40;22.25;;;-4.00;99.90;;;;;;5087273;28;20032;-76
2022/12/14 09:24:33;;;;;;;38.72;21.80;;;-4.00;99.90;;;;;;5094182;28;20035;-78
2022/12/14 09:27:00;;;;;;;44.90;23.55;;;-3.90;99.90;;;;;;5106476;28;20479;-83
2022/12/14 09:29:26;;;;;;;41.10;23.27;;;-3.90;99.90;;;;;;5084705;28;20054;-81
2022/12/14 09:31:53;;;;;;;39.20;21.60;;;-3.90;99.90;;;;;;5084414;28;20036;-73
2022/12/14 09:34:19;;;;;;;39.83;20.75;;;-3.80;99.90;;;;;;5079883;28;20071;-74
2022/12/14 09:36:45;;;;;;;40.88;21.77;;;-3.80;99.90;;;;;;5089930;28;20127;-73
2022/12/14 09:39:13;;;;;;;36.40;20.98;;;-3.80;99.90;;;;;;5070481;28;20135;-74
2022/12/14 09:42:12;;;;;;;39.80;21.35;;;-3.80;99.90;;;;;;5087443;28;20032;-74
2022/12/14 09:44:45;;;;;;;35.90;19.48;;;-3.70;99.90;;;;;;5063024;28;20139;-83
2022/12/14 09:47:17;;;;;;;40.03;20.45;;;-3.70;99.90;;;;;;5074685;28;20491;-77
2022/12/14 09:49:50;;;;;;;40.92;22.23;;;-3.70;99.90;;;;;;5065828;28;20044;-81
2022/12/14 09:52:19;;;;;;;37.17;20.98;;;-3.60;99.90;;;;;;5082490;28;20046;-80
2022/12/14 09:54:46;;;;;;;35.28;20.90;;;-3.60;99.90;;;;;;5087613;28;20040;-72
2022/12/14 09:57:35;;;;;;;37.38;21.00;;;-3.50;99.90;;;;;;5088441;28;20543;-76
2022/12/14 10:00:03;;;;;;;34.50;19.42;;;-3.40;99.90;;;;;;5068459;28;20055;-73
2022/12/14 10:02:34;;;;;;;34.58;20.50;;;-3.40;99.90;;;;;;5074392;28;20067;-75
2022/12/14 10:05:30;;;;;;;35.00;19.92;;;-3.30;99.90;;;;;;5085651;28;20052;-75
2022/12/14 10:08:18;;;;;;;33.80;19.63;;;-3.30;99.90;;;;;;5102059;28;20060;-74
2022/12/14 10:11:10;;;;;;;37.13;20.73;;;-3.20;99.90;;;;;;5068590;28;20047;-81
2022/12/14 10:13:51;;;;;;;32.75;18.95;;;-3.10;99.90;;;;;;5084378;28;20471;-76
2022/12/14 10:16:29;;;;;;;35.92;20.48;;;-3.10;99.90;;;;;;5080403;28;20089;-75
2022/12/14 10:19:02;;;;;;;35.50;20.25;;;-3.00;99.90;;;;;;5073807;28;20036;-76
2022/12/14 10:21:40;;;;;;;34.70;20.75;;;-2.90;99.90;;;;;;5077250;28;20159;-76
2022/12/14 10:24:13;;;;;;;34.80;19.85;;;-2.80;99.90;;;;;;5064211;28;20670;-75
2022/12/14 10:26:49;;;;;;;34.83;20.83;;;-2.80;99.90;;;;;;5085157;28;20117;-75
2022/12/14 10:29:36;;;;;;;36.40;19.70;;;-2.80;99.90;;;;;;5068248;28;20040;-74
2022/12/14 10:32:28;;;;;;;33.05;20.23;;;-2.70;99.90;;;;;;5081797;28;20058;-77
2022/12/14 10:34:54;;;;;;;34.97;19.45;;;-2.70;99.90;;;;;;5066621;28;20040;-86
2022/12/14 10:37:32;;;;;;;34.42;19.45;;;-2.60;99.90;;;;;;5078440;28;20097;-82
2022/12/14 10:40:03;;;;;;;32.80;19.70;;;-2.60;99.90;;;;;;5067907;28;20047;-82
2022/12/14 10:42:53;;;;;;;34.85;19.85;;;-2.60;99.90;;;;;;5081855;28;20040;-81
2022/12/14 10:45:35;;;;;;;35.33;20.42;;;-2.50;99.90;;;;;;5083490;28;21003;-80
2022/12/14 10:48:23;;;;;;;32.40;19.42;;;-2.50;99.90;;;;;;5094565;27;20109;-76
2022/12/14 10:51:02;;;;;;;34.85;21.17;;;-2.40;99.90;;;;;;5061100;28;20060;-82
2022/12/14 10:53:46;;;;;;;31.95;19.80;;;-2.40;99.90;;;;;;5078247;28;20067;-84
2022/12/14 10:56:23;;;;;;;32.05;20.58;;;-2.30;99.90;;;;;;5067342;28;20044;-86
2022/12/14 10:59:20;;;;;;;30.77;18.27;;;-2.30;99.90;;;;;;5099127;28;20135;-78
2022/12/14 11:01:51;;;;;;;33.05;19.50;;;-2.20;99.90;;;;;;5048609;28;20048;-78
2022/12/14 11:04:50;;;;;;;36.38;20.35;;;-2.20;99.90;;;;;;5085878;28;20047;-77
2022/12/14 11:07:19;;;;;;;28.70;17.65;;;-2.10;99.90;;;;;;5067379;28;20036;-77
2022/12/14 11:09:46;;;;;;;26.63;16.63;;;-2.10;99.90;;;;;;5080170;28;20039;-81
2022/12/14 11:12:23;;;;;;;30.00;16.88;;;-2.10;99.90;;;;;;5063416;28;20089;-87
2022/12/14 11:14:59;;;;;;;;;;;-2.00;99.90;;;;;;5064468;28;20072;-76
2022/12/14 11:17:37;;;;;;;25.90;15.93;;;-2.00;99.90;;;;;;5075633;28;19928;-84
2022/12/14 11:20:15;;;;;;;26.42;15.13;;;-1.90;99.90;;;;;;5092413;28;20040;-76
2022/12/14 11:22:50;;;;;;;26.02;16.52;;;-1.90;99.90;;;;;;5077779;28;20052;-76
2022/12/14 11:25:28;;;;;;;25.38;16.83;;;-1.80;99.90;;;;;;5058521;28;20052;-77
2022/12/14 11:27:54;;;;;;;30.13;18.13;;;-1.80;99.90;;;;;;5077967;28;20044;-73
2022/12/14 11:30:20;;;;;;;28.95;18.48;;;-1.80;99.90;;;;;;5079006;28;20076;-85
2022/12/14 11:32:47;;;;;;;30.50;18.35;;;-1.80;99.90;;;;;;5064937;28;20127;-80
2022/12/14 11:35:18;;;;;;;29.27;19.08;;;-1.80;99.90;;;;;;5065592;28;20064;-80
2022/12/14 11:37:46;;;;;;;31.15;19.27;;;-1.80;99.90;;;;;;5086548;28;20040;-80
2022/12/14 11:40:26;;;;;;;29.45;18.70;;;-1.70;99.90;;;;;;5067352;28;20106;-80
2022/12/14 11:43:00;;;;;;;31.58;19.95;;;-1.70;99.90;;;;;;5085191;28;20618;-80
2022/12/14 11:45:25;;;;;;;34.63;21.15;;;-1.60;99.90;;;;;;5099299;28;20044;-80
2022/12/14 11:48:13;;;;;;;32.72;21.00;;;-1.60;99.90;;;;;;5066872;28;20446;-80
2022/12/14 11:50:40;;;;;;;29.55;18.58;;;-1.60;99.90;;;;;;5085134;28;20059;-80
2022/12/14 11:53:09;;;;;;;31.42;19.38;;;-1.60;99.90;;;;;;5068995;28;20502;-80
2022/12/14 11:55:40;;;;;;;29.38;19.30;;;-1.60;99.90;;;;;;5095345;28;20040;-80
2022/12/14 11:58:28;;;;;;;29.30;18.50;;;-1.50;99.90;;;;;;5068701;28;20491;-80
2022/12/14 12:01:10;;;;;;;30.17;19.55;;;-1.50;99.90;;;;;;5066801;28;20162;-80
2022/12/14 12:03:41;;;;;;;32.40;19.33;;;-1.50;99.90;;;;;;5086627;28;20047;-79
2022/12/14 12:06:11;;;;;;;29.45;19.00;;;-1.50;99.90;;;;;;5068891;28;20048;-80
2022/12/14 12:08:42;;;;;;;31.55;19.40;;;-1.50;99.90;;;;;;5064536;28;20082;-80
2022/12/14 12:11:23;;;;;;;30.05;19.65;;;-1.50;99.90;;;;;;5068391;28;20066;-79
2022/12/14 12:13:58;;;;;;;33.95;19.13;;;-1.50;99.90;;;;;;5086971;28;20406;-80
2022/12/14 12:16:26;;;;;;;29.02;18.88;;;-1.50;99.90;;;;;;5084725;28;20055;-79
2022/12/14 12:18:57;;;;;;;29.17;18.15;;;-1.40;99.90;;;;;;5078397;28;20056;-80
2022/12/14 12:21:30;;;;;;;29.52;18.23;;;-1.40;99.90;;;;;;5067801;28;20128;-80
2022/12/14 12:24:22;;;;;;;29.17;17.95;;;-1.40;99.90;;;;;;5082164;28;20548;-79
2022/12/14 12:26:53;;;;;;;29.92;17.85;;;-1.30;99.90;;;;;;5083090;28;20058;-80
2022/12/14 12:29:30;;;;;;;28.38;17.75;;;-1.30;99.90;;;;;;5070578;28;20050;-80
2022/12/14 12:32:05;;;;;;;25.85;16.65;;;-1.30;99.90;;;;;;5083722;28;20063;-78
2022/12/14 12:35:08;;;;;;;26.38;17.80;;;-1.20;99.90;;;;;;5102444;28;20052;-79
2022/12/14 12:38:01;;;;;;;26.38;17.10;;;-1.20;99.90;;;;;;5057951;28;20193;-80
2022/12/14 12:40:43;;;;;;;29.60;17.45;;;-1.10;99.90;;;;;;5085925;28;20032;-80
2022/12/14 12:43:21;;;;;;;26.75;17.85;;;-1.10;99.90;;;;;;5059835;28;20051;-80
2022/12/14 12:45:58;;;;;;;29.73;18.08;;;-1.10;99.90;;;;;;5084508;28;20125;-80
2022/12/14 12:48:57;;;;;;;28.77;18.77;;;-1.00;99.90;;;;;;5062589;28;20387;-80
2022/12/14 12:51:43;;;;;;;27.70;17.17;;;-1.00;99.90;;;;;;5054557;28;20043;-74
2022/12/14 12:54:20;;;;;;;26.45;16.38;;;-1.00;99.90;;;;;;5054518;28;20036;-72
2022/12/14 12:56:49;;;;;;;23.85;16.38;;;-1.00;99.90;;;;;;5084396;28;20036;-79
2022/12/14 12:59:37;;;;;;;28.00;17.85;;;-0.90;99.90;;;;;;5084678;28;20051;-76
2022/12/14 13:02:48;;;;;;;24.83;15.63;;;-0.90;99.90;;;;;;5066855;28;20039;-81
2022/12/14 13:05:18;;;;;;;27.25;17.20;;;-0.90;99.90;;;;;;5026009;28;20055;-91
2022/12/14 13:07:54;;;;;;;26.02;17.42;;;-0.90;99.90;;;;;;5092021;28;20047;-89
2022/12/14 13:10:38;;;;;;;27.55;16.13;;;-0.80;99.90;;;;;;5068354;28;20040;-82
2022/12/14 13:13:14;;;;;;;24.23;14.95;;;-0.80;99.90;;;;;;5067921;28;20056;-82
2022/12/14 13:15:42;;;;;;;26.00;16.60;;;-0.80;99.90;;;;;;5099783;28;20048;-84
2022/12/14 13:18:24;;;;;;;25.67;16.95;;;-0.80;99.90;;;;;;5066034;28;20163;-82
2022/12/14 13:20:54;;;;;;;27.17;17.88;;;-0.80;99.90;;;;;;5087823;28;20044;-83
2022/12/14 13:23:23;;;;;;;28.65;17.60;;;-0.80;99.90;;;;;;5071183;28;20071;-83
2022/12/14 13:26:07;;;;;;;25.80;16.35;;;-0.70;99.90;;;;;;5061854;28;20048;-79
2022/12/14 13:29:02;;;;;;;26.60;17.85;;;-0.70;99.90;;;;;;5088442;28;20079;-84
2022/12/14 13:31:52;;;;;;;26.88;18.05;;;-0.80;99.90;;;;;;5087186;28;20036;-81
2022/12/14 13:34:38;;;;;;;30.95;20.65;;;-0.80;99.90;;;;;;5088224;28;20389;-84
2022/12/14 13:37:47;;;;;;;33.30;19.45;;;-0.70;99.90;;;;;;5052959;28;20051;-86
2022/12/14 13:40:16;;;;;;;30.83;18.98;;;-0.70;99.90;;;;;;5082178;28;20047;-93
2022/12/14 13:43:17;;;;;;;32.35;19.15;;;-0.80;99.90;;;;;;5080346;28;20380;-89
2022/12/14 13:45:46;;;;;;;29.92;18.05;;;-0.80;99.90;;;;;;5068824;28;20040;-90
2022/12/14 13:48:35;;;;;;;30.15;19.80;;;-0.80;99.90;;;;;;5101664;28;20097;-79
2022/12/14 13:51:04;;;;;;;32.67;19.83;;;-0.90;99.90;;;;;;5086739;28;20044;-79
2022/12/14 13:53:33;;;;;;;29.23;19.10;;;-0.90;99.90;;;;;;5084378;28;20036;-77
2022/12/14 13:56:00;;;;;;;30.70;18.90;;;-1.00;99.90;;;;;;5086060;28;20119;-78
2022/12/14 13:58:47;;;;;;;29.23;19.08;;;-1.00;99.90;;;;;;5085370;28;20060;-80